createdAt,value
2023-02-02T03:57:43.667Z,998.18
2023-02-02T04:02:43.490Z,998.28
2023-02-02T04:07:43.993Z,998.33
2023-02-02T04:12:43.335Z,998.41
2023-02-02T04:17:43.328Z,998.44
2023-02-02T04:22:43.469Z,998.44
2023-02-02T04:27:43.198Z,998.54
2023-02-02T04:32:50.570Z,998.63
2023-02-02T04:37:43.083Z,998.64
2023-02-02T04:42:43.214Z,998.68
2023-02-02T04:47:45.961Z,998.82
2023-02-02T04:52:42.860Z,998.79
2023-02-02T04:57:42.964Z,998.86
2023-02-02T05:02:42.741Z,998.95
2023-02-02T05:07:43.422Z,999.01
2023-02-02T05:12:42.737Z,998.98
2023-02-02T05:17:42.674Z,999.02
2023-02-02T05:22:42.474Z,999.14
2023-02-02T05:27:42.474Z,999.21
2023-02-02T05:32:42.409Z,999.19
2023-02-02T05:37:42.360Z,999.25
2023-02-02T05:42:42.245Z,999.27
2023-02-02T05:47:45.289Z,999.32
2023-02-02T05:52:42.085Z,999.42
2023-02-02T05:57:42.022Z,999.47
2023-02-02T06:02:42.067Z,999.41
2023-02-02T06:07:41.928Z,999.46
2023-02-02T06:12:41.889Z,999.45
2023-02-02T06:17:42.376Z,999.47
2023-02-02T06:22:49.379Z,999.39
2023-02-02T06:27:41.613Z,999.44
2023-02-02T06:32:41.630Z,999.56
2023-02-02T06:37:42.500Z,999.56
2023-02-02T06:42:41.693Z,999.59
2023-02-02T06:47:44.411Z,999.71
2023-02-02T06:52:41.430Z,999.70
2023-02-02T06:57:41.246Z,999.69
2023-02-02T07:02:41.168Z,999.73
2023-02-02T07:07:41.196Z,999.66
2023-02-02T07:12:41.167Z,999.74
2023-02-02T07:17:48.801Z,999.76
2023-02-02T07:24:20.066Z,999.85
2023-02-02T07:29:29.453Z,999.97
2023-02-02T07:34:19.997Z,999.93
2023-02-02T07:39:19.799Z,999.86
2023-02-02T07:44:19.792Z,999.82
2023-02-02T07:49:19.809Z,999.91
2023-02-02T07:54:19.421Z,1000.02
2023-02-02T07:59:19.412Z,1000.00
2023-02-02T08:04:19.460Z,999.98
2023-02-02T08:09:19.368Z,1000.13
2023-02-02T08:14:22.302Z,1000.22
2023-02-02T08:19:19.337Z,1000.29
2023-02-02T08:24:19.801Z,1000.33
2023-02-02T08:29:19.389Z,1000.32
2023-02-02T08:34:19.097Z,1000.48
2023-02-02T08:39:18.984Z,1000.49
2023-02-02T08:44:19.020Z,1000.54
2023-02-02T08:49:18.853Z,1000.52
2023-02-02T08:54:18.712Z,1000.48
2023-02-02T08:59:18.587Z,1000.61
2023-02-02T09:04:18.716Z,1000.58
2023-02-02T09:09:18.522Z,1000.72
2023-02-02T09:14:21.561Z,1000.72
2023-02-02T09:19:18.510Z,1000.74
2023-02-02T09:24:18.308Z,1000.84
2023-02-02T09:29:18.320Z,1000.87
2023-02-02T09:34:18.898Z,1001.00
2023-02-02T09:40:35.638Z,1001.09
2023-02-02T09:45:35.660Z,1001.17
2023-02-02T09:50:35.396Z,1001.34
2023-02-02T09:55:35.352Z,1001.24
2023-02-02T10:00:35.323Z,1001.20
2023-02-02T10:05:35.193Z,1001.29
2023-02-02T10:10:35.135Z,1001.45
2023-02-02T10:15:35.312Z,1001.47
2023-02-02T10:20:35.056Z,1001.51
2023-02-02T10:25:34.885Z,1001.42
2023-02-02T10:30:37.926Z,1001.41
2023-02-02T10:35:35.136Z,1001.48
2023-02-02T10:40:34.809Z,1001.48
2023-02-02T10:47:28.844Z,1001.48
2023-02-02T10:55:50.341Z,1001.60
2023-02-02T11:00:49.901Z,1001.67
2023-02-02T11:05:50.102Z,1001.52
2023-02-02T11:10:49.911Z,1001.55
2023-02-02T11:15:50.330Z,1001.54
2023-02-02T11:20:49.701Z,1001.54
2023-02-02T11:25:50.638Z,1001.48
2023-02-02T11:30:50.229Z,1001.53
2023-02-02T11:35:49.944Z,1001.48
2023-02-02T11:40:49.488Z,1001.50
2023-02-02T11:46:03.060Z,1001.49
2023-02-02T11:50:49.621Z,1001.66
2023-02-02T11:55:49.262Z,1001.80
2023-02-02T12:00:49.396Z,1001.84
2023-02-02T12:05:49.203Z,1001.90
2023-02-02T12:10:49.013Z,1001.89
2023-02-02T12:15:49.135Z,1002.04
2023-02-02T12:20:49.051Z,1001.97
2023-02-02T12:25:48.949Z,1002.02
2023-02-02T12:30:48.837Z,1002.00
2023-02-02T12:35:48.902Z,1001.91
2023-02-02T12:40:48.754Z,1001.89
2023-02-02T12:45:51.863Z,1001.91
2023-02-02T12:50:57.738Z,1001.89
2023-02-02T12:57:56.674Z,1002.06
2023-02-02T13:02:56.645Z,1002.06
2023-02-02T13:07:56.888Z,1002.03
2023-02-02T13:12:56.321Z,1002.15
2023-02-02T13:17:56.703Z,1002.28
2023-02-02T13:22:56.520Z,1002.24
2023-02-02T13:27:56.223Z,1002.33
2023-02-02T13:32:55.933Z,1002.35
2023-02-02T13:45:37.406Z,1002.54
2023-02-02T13:50:37.087Z,1002.56
2023-02-02T13:55:37.680Z,1002.70
2023-02-02T14:00:37.013Z,1002.73
2023-02-02T14:05:37.030Z,1002.80
2023-02-02T14:10:36.740Z,1002.83
2023-02-02T14:17:59.618Z,1002.83
2023-02-02T14:22:59.360Z,1002.80
2023-02-02T14:27:59.390Z,1002.89
2023-02-02T14:32:59.651Z,1002.91
2023-02-02T14:37:59.186Z,1003.01
2023-02-02T14:42:59.417Z,1003.12
2023-02-02T14:48:00.623Z,1003.22
2023-02-02T14:52:59.455Z,1003.21
2023-02-02T14:57:59.327Z,1003.25
2023-02-02T15:19:13.077Z,1003.72
2023-02-02T15:24:13.684Z,1003.78
2023-02-02T15:29:12.833Z,1003.95
2023-02-02T15:36:03.195Z,1003.98
2023-02-02T15:41:03.289Z,1004.11
2023-02-02T15:46:04.173Z,1004.16
2023-02-02T15:51:03.584Z,1004.25
2023-02-02T15:56:03.058Z,1004.33
2023-02-02T16:01:03.724Z,1004.43
2023-02-02T16:06:03.503Z,1004.52
2023-02-02T16:11:02.725Z,1004.65
2023-02-02T16:56:11.989Z,1005.69
2023-02-02T17:03:32.513Z,1005.74
2023-02-02T17:13:10.179Z,1005.78
2023-02-02T17:18:10.175Z,1005.83
2023-02-02T17:23:10.217Z,1005.89
2023-02-02T17:38:09.175Z,1006.07
2023-02-02T17:56:37.411Z,1006.32
2023-02-02T18:01:39.161Z,1006.27
2023-02-02T18:30:45.046Z,1006.36
2023-02-02T18:40:26.020Z,1006.43
2023-02-02T18:45:26.324Z,1006.41
2023-02-02T19:29:39.589Z,1006.24
2023-02-02T19:34:38.985Z,1006.23
2023-02-02T19:39:39.098Z,1006.33
2023-02-02T19:44:38.879Z,1006.28
2023-02-02T19:49:38.818Z,1006.26
2023-02-02T20:14:05.647Z,1006.54
2023-02-02T21:23:07.539Z,1006.33
2023-02-02T21:29:35.316Z,1006.35
2023-02-02T22:41:26.477Z,1005.70
2023-02-02T22:49:06.330Z,1005.59
2023-02-02T22:54:06.043Z,1005.57
2023-02-02T22:59:06.048Z,1005.48
2023-02-02T23:04:06.104Z,1005.39
2023-02-02T23:09:05.906Z,1005.31
2023-02-02T23:14:05.783Z,1005.26
2023-02-02T23:19:05.743Z,1005.30
2023-02-02T23:24:05.753Z,1005.29
2023-02-02T23:29:05.743Z,1005.23
2023-02-02T23:34:05.529Z,1005.21
2023-02-02T23:39:08.564Z,1005.12
2023-02-02T23:44:05.667Z,1005.07
2023-02-02T23:49:05.944Z,1005.02
2023-02-02T23:54:05.540Z,1004.89
2023-02-02T23:59:12.778Z,1004.80
